Acorn Park, Oregon
Current Conditions -  °F | °C
As of 2:54 PM on Sunday 21 Dec 2014 (Local Time) from KEUG Reporting Station
Overcast Overcast  
Wind Chill: 54°   Ceiling: 4000
Heat Index: 54°   Visibility: 10mi
Dew Point: 49°   Wind: 6mph
Humidity: 83%   Direction: 280°W
Pressure: 30.16"   Gusts: NA
Location:  44.0318°N, 123.235°W
Report Text: KEUG 212254Z 28005KT 10SM FEW033 BKN040 OVC050 12/09 A3016 RMK AO2 RAE00 SLP212 VCSH SE-SW P0000 T01220094 $
Loading
Personal Weather Stations






























Interactive Weather Map New forecast layout! Learn more

10-Day Weather Forecast

Advertisements
Track Severe Weather on mobile